createdAt,value
2018-03-14T17:28:46.857Z,34.50
2018-03-14T17:31:14.356Z,34.50
2018-03-14T17:33:41.866Z,34.30
2018-03-14T17:36:09.411Z,34.80
2018-03-14T17:38:36.914Z,31.40
2018-03-14T17:41:04.442Z,30.40
2018-03-14T17:43:31.968Z,30.70
2018-03-14T17:46:00.280Z,30.20
2018-03-14T17:48:27.836Z,30.10
2018-03-14T17:50:55.308Z,30.10
2018-03-14T17:53:22.830Z,29.60
2018-03-14T17:58:08.858Z,26.20
2018-03-14T18:00:36.388Z,31.00
2018-03-14T18:03:04.681Z,42.40
2018-03-14T18:05:32.233Z,42.30
2018-03-14T18:07:59.751Z,45.80
2018-03-14T18:10:27.270Z,49.90
2018-03-14T18:12:55.095Z,53.40
2018-03-14T18:15:22.643Z,55.70
2018-03-14T18:17:50.133Z,58.80
2018-03-14T18:20:17.774Z,60.10
2018-03-14T18:22:45.322Z,63.10
2018-03-14T18:25:13.655Z,64.50
2018-03-14T18:27:41.210Z,65.30
2018-03-14T18:30:08.719Z,67.40
2018-03-14T18:32:36.222Z,67.70
2018-03-14T18:35:03.762Z,69.80
2018-03-14T18:37:31.263Z,69.20
2018-03-14T18:39:58.774Z,70.20
2018-03-14T18:42:27.080Z,71.50
2018-03-14T18:44:54.595Z,71.50
2018-03-14T18:47:22.103Z,71.30
2018-03-14T18:49:49.627Z,71.80
2018-03-14T18:52:17.182Z,71.60
2018-03-14T18:54:44.714Z,73.60
2018-03-14T18:57:12.228Z,72.10
2018-03-14T18:59:39.727Z,72.10
2018-03-14T19:02:07.299Z,72.40
2018-03-14T19:04:34.802Z,72.30
2018-03-14T19:07:02.307Z,73.10
2018-03-14T19:09:30.033Z,72.70
2018-03-14T19:11:57.538Z,72.80
2018-03-14T19:14:25.054Z,73.00
2018-03-14T19:16:52.709Z,73.20
2018-03-14T19:19:20.219Z,73.10
2018-03-14T19:21:47.729Z,73.10
2018-03-14T19:24:15.244Z,73.60
2018-03-14T19:26:42.760Z,74.00
2018-03-14T19:29:10.280Z,74.30
2018-03-14T19:31:37.840Z,74.80
2018-03-14T19:34:06.123Z,76.20
2018-03-14T19:36:33.631Z,76.20
2018-03-14T19:39:01.301Z,77.20
2018-03-14T19:41:29.488Z,76.40
2018-03-14T19:43:57.000Z,76.40
2018-03-14T19:46:24.539Z,76.50
2018-03-14T19:48:52.050Z,77.00
2018-03-14T19:51:19.608Z,76.70
2018-03-14T19:53:47.138Z,76.90
2018-03-14T19:56:14.654Z,76.90
2018-03-14T19:58:42.162Z,76.90
2018-03-14T20:01:09.675Z,77.00
2018-03-14T20:03:37.189Z,77.50
2018-03-14T20:06:04.696Z,77.80
2018-03-14T20:08:32.987Z,78.40
2018-03-14T20:11:00.495Z,78.20
2018-03-14T20:13:28.008Z,78.20
2018-03-14T20:15:55.534Z,78.50
2018-03-14T20:18:23.046Z,78.10
2018-03-14T20:20:50.545Z,78.10
2018-03-14T20:23:18.074Z,78.60
2018-03-14T20:25:45.584Z,79.30
2018-03-14T20:28:13.868Z,78.00
2018-03-14T20:30:41.379Z,78.00
2018-03-14T20:33:08.943Z,78.00
2018-03-14T20:35:36.460Z,77.60
2018-03-14T20:38:03.982Z,77.90
2018-03-14T20:40:31.487Z,78.40
2018-03-14T20:42:59.014Z,78.30
2018-03-14T20:45:27.299Z,78.60
2018-03-14T20:47:54.803Z,78.60
2018-03-14T20:50:22.327Z,79.40
2018-03-14T20:52:49.838Z,79.50
2018-03-14T20:55:17.352Z,79.80
2018-03-14T20:57:44.923Z,79.70
2018-03-14T21:00:12.436Z,80.40
2018-03-14T21:02:41.050Z,80.70
2018-03-14T21:05:08.551Z,80.60
2018-03-14T21:07:36.074Z,80.40
2018-03-14T21:10:03.624Z,81.20
2018-03-14T21:12:31.130Z,80.90
2018-03-14T21:14:58.627Z,80.70
2018-03-14T21:17:26.159Z,80.70
2018-03-14T21:19:53.679Z,81.30
2018-03-14T21:22:21.232Z,81.20
2018-03-14T21:24:48.796Z,81.40
2018-03-14T21:27:16.313Z,81.20
2018-03-14T21:29:44.596Z,82.10
2018-03-14T21:32:12.143Z,81.20
2018-03-14T21:34:40.428Z,80.50
2018-03-14T21:37:07.946Z,80.50
2018-03-14T21:39:35.686Z,80.10
2018-03-14T21:42:03.196Z,79.90
2018-03-14T21:44:30.695Z,80.20
2018-03-14T21:46:58.344Z,79.90
2018-03-14T21:49:25.776Z,80.00
2018-03-14T21:51:53.355Z,80.00
2018-03-14T21:54:20.850Z,80.60
2018-03-14T21:56:48.364Z,80.20
2018-03-14T21:59:16.013Z,79.90
2018-03-14T22:01:43.540Z,80.10
2018-03-14T22:04:11.051Z,79.40
2018-03-14T22:06:38.582Z,78.90
2018-03-14T22:09:06.124Z,79.40
2018-03-14T22:11:33.698Z,79.10
2018-03-14T22:14:01.162Z,78.70
2018-03-14T22:16:29.466Z,78.80
2018-03-14T22:18:57.738Z,79.00
2018-03-14T22:21:25.253Z,78.90
2018-03-14T22:23:52.787Z,78.70
2018-03-14T22:26:20.300Z,79.10
2018-03-14T22:28:47.806Z,78.80
2018-03-14T22:31:15.310Z,78.50
2018-03-14T22:33:42.822Z,79.20
2018-03-14T22:36:10.334Z,78.20
2018-03-14T22:38:37.846Z,78.60
2018-03-14T22:41:05.349Z,78.70
2018-03-14T22:43:32.859Z,78.10
2018-03-14T22:46:00.568Z,78.50
2018-03-14T22:48:28.070Z,78.30
2018-03-14T22:50:55.594Z,77.60
2018-03-14T22:53:23.148Z,77.60
2018-03-14T22:55:50.660Z,77.40
2018-03-14T22:58:18.174Z,77.80
2018-03-14T23:00:45.749Z,77.80
2018-03-14T23:03:13.276Z,78.10
2018-03-14T23:05:40.796Z,77.70
2018-03-14T23:08:08.336Z,78.80
2018-03-14T23:10:35.864Z,77.90
2018-03-14T23:13:03.399Z,78.40
2018-03-14T23:15:30.957Z,78.10
2018-03-14T23:17:58.474Z,78.30
2018-03-14T23:20:25.996Z,78.20
2018-03-14T23:22:53.536Z,78.70
2018-03-14T23:25:21.047Z,78.20
2018-03-14T23:27:48.563Z,79.20
2018-03-14T23:30:16.115Z,78.90
2018-03-14T23:32:43.624Z,79.10
2018-03-14T23:35:11.130Z,79.10
2018-03-14T23:37:38.646Z,78.60
2018-03-14T23:40:06.154Z,78.20
2018-03-14T23:42:33.704Z,78.70
2018-03-14T23:45:01.233Z,78.40
2018-03-14T23:47:28.740Z,79.30
2018-03-14T23:49:56.277Z,79.20
2018-03-14T23:52:23.789Z,79.30
2018-03-14T23:54:51.298Z,78.80
2018-03-14T23:57:18.831Z,79.30
2018-03-14T23:59:46.335Z,78.80
